Language selection

Features

My Weather Profile Weather Topics  | 

Puvirnituq - northern half: Past 24 Hour Conditions

 

Iqaluit Airport

05:00 PM EST 21 January 2020
Disclaimer

This table is a summary of hourly weather conditions for the past 24 hours.
Please note that these observations might not always be representative of weather conditions over their associated marine area.

Date / Time
(EST)
Wind(knots) Conditions Visibility(km) Pressure(kPa) Air tempC) Relative humidity(%) Dew pointC) Wind Chill
21 January 2020
17:00 NNW 12 gust 18 Ice Crystals 24 100.5 -31 66 -36 -45
16:00 NNW 14 gust 19 Ice Crystals 40 100.5 -31 65 -36 -46
15:00 NNW 15 Ice Crystals 32 100.4 -31 66 -36 -47
14:00 NNW 18 Ice Crystals 48 100.4 -31 66 -35 -47
13:00 N 3 Ice Crystals 48 100.4 -31 67 -35 -38
12:00 N 4 Ice Crystals 48 100.3 -31 67 -35 -39
11:00 NNW 11 Ice Crystals 48 100.3 -31 65 -36 -45
10:00 NNW 11 gust 19 Ice Crystals 48 100.3 -32 66 -36 -45
9:00 NW 15 Ice Crystals 48 100.4 -33 66 -37 -49
8:00 NNW 9 Ice Crystals 48 100.4 -32 67 -36 -45
7:00 NW 14 Ice Crystals 24 100.3 -33 67 -37 -48
6:00 NNW 9 Ice Crystals 24 100.3 -32 67 -36 -45
5:00 NNW 13 Ice Crystals 24 100.3 -33 67 -37 -48
4:00 NNW 11 Ice Crystals 24 100.3 -33 67 -37 -47
3:00 NNW 11 Clear 24 100.2 -32 66 -36 -46
2:00 NW 11 Clear 24 100.2 -33 66 -37 -47
1:00 NNW 12 Clear 24 100.2 -33 66 -37 -47
0:00 NNW 11 Clear 24 100.2 -32 68 -37 -46
20 January 2020
23:00 NNW 3 Clear 24 100.2 -31 69 -35 -37
22:00 NW 12 Clear 24 100.2 -32 67 -36 -46
21:00 NW 14 Drifting Snow 24 100.2 -32 66 -37 -47
20:00 NW 16 Ice Crystals 24 100.1 -32 66 -37 -48
19:00 NW 15 Ice Crystals 24 100.1 -33 66 -37 -48
18:00 NW 14 Ice Crystals 24 100.1 -32 66 -36 -47
17:00 NW 15 Ice Crystals 24 100.0 -31 67 -36 -47

Zoom-in to make a selection

Map of Hudson - Hudson Bay marine weather areas Arviat Airport Baker Lake Airport Chesterfield Inlet Airport Coral Harbour Airport Rankin Inlet Airport Sanikiluaq Airport Whale Cove Airport Cape Dorset Airport Iqaluit Airport Wager Bay Kimmirut Airport Churchill Airport Fort Severn Airport Peawanuck Airport Moosonee Airport Eastmain Airport La Grande Rivière Airport Waskaganish Airport Wemindji Airport Akulivik Airport Inukjuak Airport Ivujivik Airport Kuujjuarapik Airport Puvirnituq Airport Umiujaq Airport Aupaluk Airport Kangiqsujuaq Airport Kangirsuk Airport Kangiqsualujjuaq Airport Kuujjuaq Airport Quaqtaq Airport Salluit Airport Tasiujaq Airport Cape Kakkiviak
Legend:
buoy Buoy
land station Land Station

Hudson - Hudson Bay Area

Another Region

What we are doing

Date modified: